sensor_id;sensor_type;location;lat;lon;timestamp;temperature;humidity
12841;DHT22;6487;48.626;12.486;2023-04-15T00:01:13;7.30;99.90
12841;DHT22;6487;48.626;12.486;2023-04-15T00:03:45;7.30;99.90
12841;DHT22;6487;48.626;12.486;2023-04-15T00:06:17;7.30;99.90
12841;DHT22;6487;48.626;12.486;2023-04-15T00:08:46;7.20;99.90
12841;DHT22;6487;48.626;12.486;2023-04-15T00:11:14;7.20;99.90
12841;DHT22;6487;48.626;12.486;2023-04-15T00:13:43;7.20;99.90
12841;DHT22;6487;48.626;12.486;2023-04-15T00:16:13;7.10;99.90
12841;DHT22;6487;48.626;12.486;2023-04-15T00:18:42;7.00;99.90
12841;DHT22;6487;48.626;12.486;2023-04-15T00:21:10;7.10;99.90
12841;DHT22;6487;48.626;12.486;2023-04-15T00:23:42;7.00;99.90
12841;DHT22;6487;48.626;12.486;2023-04-15T00:26:10;7.10;99.90
12841;DHT22;6487;48.626;12.486;2023-04-15T00:28:39;7.10;99.90
12841;DHT22;6487;48.626;12.486;2023-04-15T00:31:07;7.00;99.90
12841;DHT22;6487;48.626;12.486;2023-04-15T00:33:37;7.10;99.90
12841;DHT22;6487;48.626;12.486;2023-04-15T00:36:09;7.20;99.90
12841;DHT22;6487;48.626;12.486;2023-04-15T00:38:40;7.20;99.90
12841;DHT22;6487;48.626;12.486;2023-04-15T00:41:09;7.00;99.90
12841;DHT22;6487;48.626;12.486;2023-04-15T00:43:40;7.10;99.90
12841;DHT22;6487;48.626;12.486;2023-04-15T00:46:12;7.20;99.90
12841;DHT22;6487;48.626;12.486;2023-04-15T00:48:43;7.20;99.90
12841;DHT22;6487;48.626;12.486;2023-04-15T00:51:12;7.20;99.90
12841;DHT22;6487;48.626;12.486;2023-04-15T00:53:40;7.20;99.90
12841;DHT22;6487;48.626;12.486;2023-04-15T00:56:09;7.20;99.90
12841;DHT22;6487;48.626;12.486;2023-04-15T00:58:38;7.10;99.90
12841;DHT22;6487;48.626;12.486;2023-04-15T01:01:06;7.20;99.90
12841;DHT22;6487;48.626;12.486;2023-04-15T01:03:34;7.20;99.90
12841;DHT22;6487;48.626;12.486;2023-04-15T01:06:05;7.20;99.90
12841;DHT22;6487;48.626;12.486;2023-04-15T01:08:34;7.10;99.90
12841;DHT22;6487;48.626;12.486;2023-04-15T01:11:02;7.10;99.90
12841;DHT22;6487;48.626;12.486;2023-04-15T01:13:32;7.20;99.90
12841;DHT22;6487;48.626;12.486;2023-04-15T01:16:01;7.00;99.90
12841;DHT22;6487;48.626;12.486;2023-04-15T01:18:33;7.10;99.90
12841;DHT22;6487;48.626;12.486;2023-04-15T01:21:02;7.10;99.90
12841;DHT22;6487;48.626;12.486;2023-04-15T01:23:35;7.10;99.90
12841;DHT22;6487;48.626;12.486;2023-04-15T01:26:06;7.10;99.90
12841;DHT22;6487;48.626;12.486;2023-04-15T01:28:36;7.10;99.90
12841;DHT22;6487;48.626;12.486;2023-04-15T01:31:05;6.90;99.90
12841;DHT22;6487;48.626;12.486;2023-04-15T01:33:34;7.00;99.90
12841;DHT22;6487;48.626;12.486;2023-04-15T01:36:04;7.10;99.90
12841;DHT22;6487;48.626;12.486;2023-04-15T01:38:36;7.00;99.90
12841;DHT22;6487;48.626;12.486;2023-04-15T01:41:05;7.00;99.90
12841;DHT22;6487;48.626;12.486;2023-04-15T01:43:34;7.00;99.90
12841;DHT22;6487;48.626;12.486;2023-04-15T01:46:03;7.10;99.90
12841;DHT22;6487;48.626;12.486;2023-04-15T01:48:32;7.20;99.90
12841;DHT22;6487;48.626;12.486;2023-04-15T01:51:01;7.20;99.90
12841;DHT22;6487;48.626;12.486;2023-04-15T01:53:30;7.10;99.90
12841;DHT22;6487;48.626;12.486;2023-04-15T01:55:58;6.90;99.90
12841;DHT22;6487;48.626;12.486;2023-04-15T01:58:28;6.90;99.90
12841;DHT22;6487;48.626;12.486;2023-04-15T02:00:57;7.00;99.90
12841;DHT22;6487;48.626;12.486;2023-04-15T02:03:25;7.00;99.90
12841;DHT22;6487;48.626;12.486;2023-04-15T02:05:54;7.00;99.90
12841;DHT22;6487;48.626;12.486;2023-04-15T02:08:23;7.00;99.90
12841;DHT22;6487;48.626;12.486;2023-04-15T02:10:51;7.00;99.90
12841;DHT22;6487;48.626;12.486;2023-04-15T02:13:20;7.10;99.90
12841;DHT22;6487;48.626;12.486;2023-04-15T02:15:49;7.00;99.90
12841;DHT22;6487;48.626;12.486;2023-04-15T02:18:18;7.00;99.90
12841;DHT22;6487;48.626;12.486;2023-04-15T02:20:49;7.00;99.90
12841;DHT22;6487;48.626;12.486;2023-04-15T02:23:18;7.00;99.90
12841;DHT22;6487;48.626;12.486;2023-04-15T02:25:47;7.00;99.90
12841;DHT22;6487;48.626;12.486;2023-04-15T02:28:19;7.00;99.90
12841;DHT22;6487;48.626;12.486;2023-04-15T02:30:49;7.00;99.90
12841;DHT22;6487;48.626;12.486;2023-04-15T02:33:20;7.00;99.90
12841;DHT22;6487;48.626;12.486;2023-04-15T02:35:48;7.00;99.90
12841;DHT22;6487;48.626;12.486;2023-04-15T02:38:17;7.00;99.90
12841;DHT22;6487;48.626;12.486;2023-04-15T02:40:45;7.10;99.90
12841;DHT22;6487;48.626;12.486;2023-04-15T02:43:15;6.90;99.90
12841;DHT22;6487;48.626;12.486;2023-04-15T02:45:44;7.00;99.90
12841;DHT22;6487;48.626;12.486;2023-04-15T02:48:15;7.00;99.90
12841;DHT22;6487;48.626;12.486;2023-04-15T02:50:45;6.90;99.90
12841;DHT22;6487;48.626;12.486;2023-04-15T02:53:14;6.80;99.90
12841;DHT22;6487;48.626;12.486;2023-04-15T02:55:43;6.90;99.90
12841;DHT22;6487;48.626;12.486;2023-04-15T02:58:11;6.80;99.90
12841;DHT22;6487;48.626;12.486;2023-04-15T03:00:40;6.80;99.90
12841;DHT22;6487;48.626;12.486;2023-04-15T03:03:08;6.90;99.90
12841;DHT22;6487;48.626;12.486;2023-04-15T03:05:38;6.80;99.90
12841;DHT22;6487;48.626;12.486;2023-04-15T03:08:06;6.90;99.90
12841;DHT22;6487;48.626;12.486;2023-04-15T03:10:35;6.80;99.90
12841;DHT22;6487;48.626;12.486;2023-04-15T03:13:03;6.80;99.90
12841;DHT22;6487;48.626;12.486;2023-04-15T03:15:32;6.90;99.90
12841;DHT22;6487;48.626;12.486;2023-04-15T03:18:00;6.90;99.90
12841;DHT22;6487;48.626;12.486;2023-04-15T03:20:30;6.90;99.90
12841;DHT22;6487;48.626;12.486;2023-04-15T03:22:59;6.90;99.90
12841;DHT22;6487;48.626;12.486;2023-04-15T03:25:28;6.90;99.90
12841;DHT22;6487;48.626;12.486;2023-04-15T03:27:56;6.80;99.90
12841;DHT22;6487;48.626;12.486;2023-04-15T03:30:25;6.80;99.90
12841;DHT22;6487;48.626;12.486;2023-04-15T03:32:53;6.80;99.90
12841;DHT22;6487;48.626;12.486;2023-04-15T03:35:21;6.90;99.90
12841;DHT22;6487;48.626;12.486;2023-04-15T03:37:50;6.90;99.90
12841;DHT22;6487;48.626;12.486;2023-04-15T03:40:20;6.90;99.90
12841;DHT22;6487;48.626;12.486;2023-04-15T03:42:48;6.90;99.90
12841;DHT22;6487;48.626;12.486;2023-04-15T03:45:17;7.00;99.90
12841;DHT22;6487;48.626;12.486;2023-04-15T03:47:45;7.10;99.90
12841;DHT22;6487;48.626;12.486;2023-04-15T03:50:15;7.10;99.90
12841;DHT22;6487;48.626;12.486;2023-04-15T03:52:46;7.10;99.90
12841;DHT22;6487;48.626;12.486;2023-04-15T03:55:17;6.90;99.90
12841;DHT22;6487;48.626;12.486;2023-04-15T03:57:46;6.90;99.90
12841;DHT22;6487;48.626;12.486;2023-04-15T04:00:15;6.90;99.90
12841;DHT22;6487;48.626;12.486;2023-04-15T04:02:43;7.00;99.90
12841;DHT22;6487;48.626;12.486;2023-04-15T04:05:12;7.00;99.90
12841;DHT22;6487;48.626;12.486;2023-04-15T04:07:40;6.70;99.90
12841;DHT22;6487;48.626;12.486;2023-04-15T04:10:09;6.70;99.90
12841;DHT22;6487;48.626;12.486;2023-04-15T04:12:41;6.80;99.90
12841;DHT22;6487;48.626;12.486;2023-04-15T04:15:10;6.90;99.90
12841;DHT22;6487;48.626;12.486;2023-04-15T04:17:38;6.80;99.90
12841;DHT22;6487;48.626;12.486;2023-04-15T04:20:07;6.80;99.90
12841;DHT22;6487;48.626;12.486;2023-04-15T04:22:39;6.90;99.90
12841;DHT22;6487;48.626;12.486;2023-04-15T04:25:08;6.90;99.90
12841;DHT22;6487;48.626;12.486;2023-04-15T04:27:37;7.00;99.90
12841;DHT22;6487;48.626;12.486;2023-04-15T04:30:07;7.00;99.90
12841;DHT22;6487;48.626;12.486;2023-04-15T04:32:36;6.90;99.90
12841;DHT22;6487;48.626;12.486;2023-04-15T04:35:04;6.80;99.90
12841;DHT22;6487;48.626;12.486;2023-04-15T04:37:33;6.90;99.90
12841;DHT22;6487;48.626;12.486;2023-04-15T04:40:02;7.00;99.90
12841;DHT22;6487;48.626;12.486;2023-04-15T04:42:30;7.00;99.90
12841;DHT22;6487;48.626;12.486;2023-04-15T04:44:59;7.00;99.90
12841;DHT22;6487;48.626;12.486;2023-04-15T04:47:29;7.00;99.90
12841;DHT22;6487;48.626;12.486;2023-04-15T04:49:57;7.10;99.90
12841;DHT22;6487;48.626;12.486;2023-04-15T04:52:29;7.00;99.90
12841;DHT22;6487;48.626;12.486;2023-04-15T04:54:57;7.00;99.90
12841;DHT22;6487;48.626;12.486;2023-04-15T04:57:25;6.70;99.90
12841;DHT22;6487;48.626;12.486;2023-04-15T04:59:54;6.60;99.90
12841;DHT22;6487;48.626;12.486;2023-04-15T05:02:22;6.70;99.90
12841;DHT22;6487;48.626;12.486;2023-04-15T05:04:54;6.70;99.90
12841;DHT22;6487;48.626;12.486;2023-04-15T05:07:22;6.70;99.90
12841;DHT22;6487;48.626;12.486;2023-04-15T05:09:51;6.50;99.90
12841;DHT22;6487;48.626;12.486;2023-04-15T05:12:22;6.40;99.90
12841;DHT22;6487;48.626;12.486;2023-04-15T05:14:51;6.40;99.90
12841;DHT22;6487;48.626;12.486;2023-04-15T05:17:19;6.40;99.90
12841;DHT22;6487;48.626;12.486;2023-04-15T05:19:48;6.30;99.90
12841;DHT22;6487;48.626;12.486;2023-04-15T05:22:18;6.30;99.90
12841;DHT22;6487;48.626;12.486;2023-04-15T05:24:46;6.20;99.90
12841;DHT22;6487;48.626;12.486;2023-04-15T05:27:14;6.10;99.90
12841;DHT22;6487;48.626;12.486;2023-04-15T05:29:42;6.10;99.90
12841;DHT22;6487;48.626;12.486;2023-04-15T05:32:11;6.20;99.90
12841;DHT22;6487;48.626;12.486;2023-04-15T05:34:39;6.10;99.90
12841;DHT22;6487;48.626;12.486;2023-04-15T05:37:10;6.10;99.90
12841;DHT22;6487;48.626;12.486;2023-04-15T05:39:40;6.00;99.90
12841;DHT22;6487;48.626;12.486;2023-04-15T05:42:08;6.10;99.90
12841;DHT22;6487;48.626;12.486;2023-04-15T05:44:37;6.10;99.90
12841;DHT22;6487;48.626;12.486;2023-04-15T05:47:05;6.10;99.90
12841;DHT22;6487;48.626;12.486;2023-04-15T05:49:37;6.00;99.90
12841;DHT22;6487;48.626;12.486;2023-04-15T05:52:05;5.90;99.90
12841;DHT22;6487;48.626;12.486;2023-04-15T05:54:33;6.00;99.90
12841;DHT22;6487;48.626;12.486;2023-04-15T05:57:03;5.80;99.90
12841;DHT22;6487;48.626;12.486;2023-04-15T05:59:35;5.80;99.90
12841;DHT22;6487;48.626;12.486;2023-04-15T06:02:09;5.80;99.90
12841;DHT22;6487;48.626;12.486;2023-04-15T06:04:37;5.90;99.90
12841;DHT22;6487;48.626;12.486;2023-04-15T06:07:06;6.00;99.90
12841;DHT22;6487;48.626;12.486;2023-04-15T06:09:34;5.70;99.90
12841;DHT22;6487;48.626;12.486;2023-04-15T06:12:07;5.90;99.90
12841;DHT22;6487;48.626;12.486;2023-04-15T06:14:38;6.00;99.90
12841;DHT22;6487;48.626;12.486;2023-04-15T06:17:07;6.10;99.90
12841;DHT22;6487;48.626;12.486;2023-04-15T06:19:35;6.20;99.90
12841;DHT22;6487;48.626;12.486;2023-04-15T06:22:03;6.30;99.90
12841;DHT22;6487;48.626;12.486;2023-04-15T06:24:35;6.20;99.90
12841;DHT22;6487;48.626;12.486;2023-04-15T06:27:03;6.10;99.90
12841;DHT22;6487;48.626;12.486;2023-04-15T06:29:33;6.10;99.90
12841;DHT22;6487;48.626;12.486;2023-04-15T06:32:02;6.10;99.90
12841;DHT22;6487;48.626;12.486;2023-04-15T06:34:30;6.20;99.90
12841;DHT22;6487;48.626;12.486;2023-04-15T06:36:58;6.20;99.90
12841;DHT22;6487;48.626;12.486;2023-04-15T06:39:27;6.20;99.90
12841;DHT22;6487;48.626;12.486;2023-04-15T06:41:55;6.20;99.90
12841;DHT22;6487;48.626;12.486;2023-04-15T06:44:24;6.30;99.90
12841;DHT22;6487;48.626;12.486;2023-04-15T06:46:53;6.30;99.90
12841;DHT22;6487;48.626;12.486;2023-04-15T06:49:22;6.30;99.90
12841;DHT22;6487;48.626;12.486;2023-04-15T06:51:53;6.30;99.90
12841;DHT22;6487;48.626;12.486;2023-04-15T06:54:21;6.30;99.90
12841;DHT22;6487;48.626;12.486;2023-04-15T06:56:49;5.90;99.90
12841;DHT22;6487;48.626;12.486;2023-04-15T06:59:21;6.00;99.90
12841;DHT22;6487;48.626;12.486;2023-04-15T07:01:55;6.00;99.90
12841;DHT22;6487;48.626;12.486;2023-04-15T07:04:26;6.10;99.90
12841;DHT22;6487;48.626;12.486;2023-04-15T07:06:54;6.10;99.90
12841;DHT22;6487;48.626;12.486;2023-04-15T07:09:23;6.20;99.90
12841;DHT22;6487;48.626;12.486;2023-04-15T07:11:52;6.10;99.90
12841;DHT22;6487;48.626;12.486;2023-04-15T07:14:20;6.20;99.90
12841;DHT22;6487;48.626;12.486;2023-04-15T07:16:49;6.10;99.90
12841;DHT22;6487;48.626;12.486;2023-04-15T07:19:21;6.10;99.90
12841;DHT22;6487;48.626;12.486;2023-04-15T07:21:50;6.10;99.90
12841;DHT22;6487;48.626;12.486;2023-04-15T07:24:18;6.30;99.90
12841;DHT22;6487;48.626;12.486;2023-04-15T07:26:46;6.30;99.90
12841;DHT22;6487;48.626;12.486;2023-04-15T07:29:15;6.40;99.90
12841;DHT22;6487;48.626;12.486;2023-04-15T07:31:43;6.40;99.90
12841;DHT22;6487;48.626;12.486;2023-04-15T07:34:12;6.40;99.90
12841;DHT22;6487;48.626;12.486;2023-04-15T07:36:41;6.40;99.90
12841;DHT22;6487;48.626;12.486;2023-04-15T07:39:10;6.50;99.90
12841;DHT22;6487;48.626;12.486;2023-04-15T07:41:38;6.50;99.90
12841;DHT22;6487;48.626;12.486;2023-04-15T07:44:06;6.50;99.90
12841;DHT22;6487;48.626;12.486;2023-04-15T07:46:35;6.40;99.90
12841;DHT22;6487;48.626;12.486;2023-04-15T07:49:04;6.50;99.90
12841;DHT22;6487;48.626;12.486;2023-04-15T07:51:33;6.40;99.90
12841;DHT22;6487;48.626;12.486;2023-04-15T07:54:04;6.50;99.90
12841;DHT22;6487;48.626;12.486;2023-04-15T07:56:33;6.50;99.90
12841;DHT22;6487;48.626;12.486;2023-04-15T07:59:01;6.60;99.90
12841;DHT22;6487;48.626;12.486;2023-04-15T08:01:31;6.60;99.90
12841;DHT22;6487;48.626;12.486;2023-04-15T08:04:00;6.60;99.90
12841;DHT22;6487;48.626;12.486;2023-04-15T08:06:31;6.60;99.90
12841;DHT22;6487;48.626;12.486;2023-04-15T08:09:00;6.70;99.90
12841;DHT22;6487;48.626;12.486;2023-04-15T08:11:30;6.70;99.90
12841;DHT22;6487;48.626;12.486;2023-04-15T08:14:01;6.70;99.90
12841;DHT22;6487;48.626;12.486;2023-04-15T08:16:29;6.50;99.90
12841;DHT22;6487;48.626;12.486;2023-04-15T08:18:58;6.60;99.90
12841;DHT22;6487;48.626;12.486;2023-04-15T08:21:30;6.70;99.90
12841;DHT22;6487;48.626;12.486;2023-04-15T08:24:01;6.70;99.90
12841;DHT22;6487;48.626;12.486;2023-04-15T08:26:31;6.80;99.90
12841;DHT22;6487;48.626;12.486;2023-04-15T08:28:59;6.80;99.90
12841;DHT22;6487;48.626;12.486;2023-04-15T08:31:28;6.80;99.90
12841;DHT22;6487;48.626;12.486;2023-04-15T08:33:57;6.80;99.90
12841;DHT22;6487;48.626;12.486;2023-04-15T08:36:26;6.80;99.90
12841;DHT22;6487;48.626;12.486;2023-04-15T08:38:54;6.90;99.90
12841;DHT22;6487;48.626;12.486;2023-04-15T08:41:24;6.90;99.90
12841;DHT22;6487;48.626;12.486;2023-04-15T08:43:57;6.70;99.90
12841;DHT22;6487;48.626;12.486;2023-04-15T08:46:26;6.60;99.90
12841;DHT22;6487;48.626;12.486;2023-04-15T08:48:56;6.60;99.90
12841;DHT22;6487;48.626;12.486;2023-04-15T08:51:26;6.50;99.90
12841;DHT22;6487;48.626;12.486;2023-04-15T08:53:55;6.60;99.90
12841;DHT22;6487;48.626;12.486;2023-04-15T08:56:25;6.70;99.90
12841;DHT22;6487;48.626;12.486;2023-04-15T08:58:55;6.60;99.90
12841;DHT22;6487;48.626;12.486;2023-04-15T09:01:24;6.60;99.90
12841;DHT22;6487;48.626;12.486;2023-04-15T09:03:52;6.70;99.90
12841;DHT22;6487;48.626;12.486;2023-04-15T09:06:21;6.70;99.90
12841;DHT22;6487;48.626;12.486;2023-04-15T09:08:50;6.80;99.90
12841;DHT22;6487;48.626;12.486;2023-04-15T09:11:20;6.80;99.90
12841;DHT22;6487;48.626;12.486;2023-04-15T09:13:52;6.70;99.90
12841;DHT22;6487;48.626;12.486;2023-04-15T09:16:21;6.80;99.90
12841;DHT22;6487;48.626;12.486;2023-04-15T09:18:53;6.80;99.90
12841;DHT22;6487;48.626;12.486;2023-04-15T09:21:24;6.80;99.90
12841;DHT22;6487;48.626;12.486;2023-04-15T09:23:57;6.80;99.90
12841;DHT22;6487;48.626;12.486;2023-04-15T09:26:35;6.90;99.90
12841;DHT22;6487;48.626;12.486;2023-04-15T09:29:05;6.90;99.90
12841;DHT22;6487;48.626;12.486;2023-04-15T09:31:41;6.90;99.90
12841;DHT22;6487;48.626;12.486;2023-04-15T09:34:09;6.90;99.90
12841;DHT22;6487;48.626;12.486;2023-04-15T09:36:51;6.90;99.90
12841;DHT22;6487;48.626;12.486;2023-04-15T09:39:21;7.00;99.90
12841;DHT22;6487;48.626;12.486;2023-04-15T09:42:05;6.90;99.90
12841;DHT22;6487;48.626;12.486;2023-04-15T09:44:34;6.90;99.90
12841;DHT22;6487;48.626;12.486;2023-04-15T09:47:03;6.70;99.90
12841;DHT22;6487;48.626;12.486;2023-04-15T09:49:32;6.80;99.90
12841;DHT22;6487;48.626;12.486;2023-04-15T09:52:01;6.80;99.90
12841;DHT22;6487;48.626;12.486;2023-04-15T09:54:33;6.80;99.90
12841;DHT22;6487;48.626;12.486;2023-04-15T09:57:06;6.80;99.90
12841;DHT22;6487;48.626;12.486;2023-04-15T09:59:36;6.80;99.90
12841;DHT22;6487;48.626;12.486;2023-04-15T10:02:05;6.90;99.90
12841;DHT22;6487;48.626;12.486;2023-04-15T10:04:35;6.90;99.90
12841;DHT22;6487;48.626;12.486;2023-04-15T10:07:08;7.00;99.90
12841;DHT22;6487;48.626;12.486;2023-04-15T10:09:37;7.10;99.90
12841;DHT22;6487;48.626;12.486;2023-04-15T10:12:06;7.00;99.90
12841;DHT22;6487;48.626;12.486;2023-04-15T10:14:35;7.00;99.90
12841;DHT22;6487;48.626;12.486;2023-04-15T10:17:07;7.00;99.90
12841;DHT22;6487;48.626;12.486;2023-04-15T10:19:38;6.90;99.90
12841;DHT22;6487;48.626;12.486;2023-04-15T10:22:07;6.70;99.90
12841;DHT22;6487;48.626;12.486;2023-04-15T10:24:38;6.80;99.90
12841;DHT22;6487;48.626;12.486;2023-04-15T10:27:07;6.90;99.90
12841;DHT22;6487;48.626;12.486;2023-04-15T10:29:38;6.90;99.90
12841;DHT22;6487;48.626;12.486;2023-04-15T10:32:11;7.10;99.90
12841;DHT22;6487;48.626;12.486;2023-04-15T10:34:40;7.20;99.90
12841;DHT22;6487;48.626;12.486;2023-04-15T10:37:09;7.10;99.90
12841;DHT22;6487;48.626;12.486;2023-04-15T10:39:39;7.20;99.90
12841;DHT22;6487;48.626;12.486;2023-04-15T10:42:10;7.20;99.90
12841;DHT22;6487;48.626;12.486;2023-04-15T10:44:41;7.10;99.90
12841;DHT22;6487;48.626;12.486;2023-04-15T10:47:14;7.10;99.90
12841;DHT22;6487;48.626;12.486;2023-04-15T10:49:47;7.20;99.90
12841;DHT22;6487;48.626;12.486;2023-04-15T10:52:21;7.30;99.90
12841;DHT22;6487;48.626;12.486;2023-04-15T10:55:01;7.30;99.90
12841;DHT22;6487;48.626;12.486;2023-04-15T10:57:34;7.40;99.90
12841;DHT22;6487;48.626;12.486;2023-04-15T11:00:12;7.40;99.90
12841;DHT22;6487;48.626;12.486;2023-04-15T11:02:45;7.30;99.90
12841;DHT22;6487;48.626;12.486;2023-04-15T11:05:14;7.30;99.90
12841;DHT22;6487;48.626;12.486;2023-04-15T11:07:53;7.30;99.90
12841;DHT22;6487;48.626;12.486;2023-04-15T11:10:52;7.30;99.90
12841;DHT22;6487;48.626;12.486;2023-04-15T11:13:30;7.30;99.90
12841;DHT22;6487;48.626;12.486;2023-04-15T11:16:02;7.40;99.90
12841;DHT22;6487;48.626;12.486;2023-04-15T11:18:32;7.40;99.90
12841;DHT22;6487;48.626;12.486;2023-04-15T11:21:03;7.40;99.90
12841;DHT22;6487;48.626;12.486;2023-04-15T11:23:36;7.40;99.90
12841;DHT22;6487;48.626;12.486;2023-04-15T11:26:13;7.40;99.90
12841;DHT22;6487;48.626;12.486;2023-04-15T11:28:42;7.60;99.90
12841;DHT22;6487;48.626;12.486;2023-04-15T11:31:12;7.50;99.90
12841;DHT22;6487;48.626;12.486;2023-04-15T11:33:52;7.30;99.90
12841;DHT22;6487;48.626;12.486;2023-04-15T11:36:23;7.10;99.90
12841;DHT22;6487;48.626;12.486;2023-04-15T11:38:54;7.20;99.90
12841;DHT22;6487;48.626;12.486;2023-04-15T11:41:24;7.30;99.90
12841;DHT22;6487;48.626;12.486;2023-04-15T11:43:53;7.30;99.90
12841;DHT22;6487;48.626;12.486;2023-04-15T11:46:28;7.40;99.90
12841;DHT22;6487;48.626;12.486;2023-04-15T11:48:59;7.40;99.90
12841;DHT22;6487;48.626;12.486;2023-04-15T11:51:31;7.50;99.90
12841;DHT22;6487;48.626;12.486;2023-04-15T11:54:00;7.40;99.90
12841;DHT22;6487;48.626;12.486;2023-04-15T11:56:29;7.50;99.90
12841;DHT22;6487;48.626;12.486;2023-04-15T11:58:58;7.50;99.90
12841;DHT22;6487;48.626;12.486;2023-04-15T12:01:30;7.50;99.90
12841;DHT22;6487;48.626;12.486;2023-04-15T12:04:00;7.50;99.90
12841;DHT22;6487;48.626;12.486;2023-04-15T12:06:33;7.50;99.90
12841;DHT22;6487;48.626;12.486;2023-04-15T12:09:07;7.50;99.90
12841;DHT22;6487;48.626;12.486;2023-04-15T12:11:39;7.60;99.90
12841;DHT22;6487;48.626;12.486;2023-04-15T12:14:11;7.60;99.90
12841;DHT22;6487;48.626;12.486;2023-04-15T12:16:44;7.50;99.90
12841;DHT22;6487;48.626;12.486;2023-04-15T12:19:22;7.60;99.90
12841;DHT22;6487;48.626;12.486;2023-04-15T12:21:56;7.40;99.90
12841;DHT22;6487;48.626;12.486;2023-04-15T12:24:26;7.50;99.90
12841;DHT22;6487;48.626;12.486;2023-04-15T12:26:58;7.60;99.90
12841;DHT22;6487;48.626;12.486;2023-04-15T12:29:29;7.70;99.90
12841;DHT22;6487;48.626;12.486;2023-04-15T12:32:04;7.70;99.90
12841;DHT22;6487;48.626;12.486;2023-04-15T12:34:36;7.80;99.90
12841;DHT22;6487;48.626;12.486;2023-04-15T12:37:07;7.80;99.90
12841;DHT22;6487;48.626;12.486;2023-04-15T12:39:37;7.90;99.90
12841;DHT22;6487;48.626;12.486;2023-04-15T12:42:07;7.80;99.90
12841;DHT22;6487;48.626;12.486;2023-04-15T12:44:39;7.80;99.90
12841;DHT22;6487;48.626;12.486;2023-04-15T12:47:08;7.90;99.90
12841;DHT22;6487;48.626;12.486;2023-04-15T12:49:39;7.90;99.90
12841;DHT22;6487;48.626;12.486;2023-04-15T12:52:07;8.00;99.90
12841;DHT22;6487;48.626;12.486;2023-04-15T12:54:36;8.00;99.90
12841;DHT22;6487;48.626;12.486;2023-04-15T12:57:05;8.20;99.90
12841;DHT22;6487;48.626;12.486;2023-04-15T12:59:34;8.20;99.90
12841;DHT22;6487;48.626;12.486;2023-04-15T13:02:03;8.20;99.90
12841;DHT22;6487;48.626;12.486;2023-04-15T13:04:31;8.20;99.90
12841;DHT22;6487;48.626;12.486;2023-04-15T13:07:01;8.20;99.90
12841;DHT22;6487;48.626;12.486;2023-04-15T13:09:30;8.30;99.90
12841;DHT22;6487;48.626;12.486;2023-04-15T13:11:59;8.30;99.90
12841;DHT22;6487;48.626;12.486;2023-04-15T13:14:27;8.30;99.90
12841;DHT22;6487;48.626;12.486;2023-04-15T13:16:55;8.30;99.90
12841;DHT22;6487;48.626;12.486;2023-04-15T13:19:24;8.30;99.90
12841;DHT22;6487;48.626;12.486;2023-04-15T13:21:52;8.30;99.90
12841;DHT22;6487;48.626;12.486;2023-04-15T13:24:22;8.30;99.90
12841;DHT22;6487;48.626;12.486;2023-04-15T13:26:51;8.40;99.90
12841;DHT22;6487;48.626;12.486;2023-04-15T13:29:19;8.20;99.90
12841;DHT22;6487;48.626;12.486;2023-04-15T13:31:48;8.30;99.90
12841;DHT22;6487;48.626;12.486;2023-04-15T13:34:17;8.30;99.90
12841;DHT22;6487;48.626;12.486;2023-04-15T13:36:46;8.30;99.90
12841;DHT22;6487;48.626;12.486;2023-04-15T13:39:14;8.30;99.90
12841;DHT22;6487;48.626;12.486;2023-04-15T13:41:44;8.30;99.90
12841;DHT22;6487;48.626;12.486;2023-04-15T13:44:14;8.40;99.90
12841;DHT22;6487;48.626;12.486;2023-04-15T13:46:42;8.30;99.90
12841;DHT22;6487;48.626;12.486;2023-04-15T13:49:11;8.30;99.90
12841;DHT22;6487;48.626;12.486;2023-04-15T13:51:39;8.40;99.90
12841;DHT22;6487;48.626;12.486;2023-04-15T13:54:08;8.40;99.90
12841;DHT22;6487;48.626;12.486;2023-04-15T13:56:36;8.40;99.90
12841;DHT22;6487;48.626;12.486;2023-04-15T13:59:06;8.40;99.90
12841;DHT22;6487;48.626;12.486;2023-04-15T14:01:34;8.50;99.90
12841;DHT22;6487;48.626;12.486;2023-04-15T14:04:03;8.50;99.90
12841;DHT22;6487;48.626;12.486;2023-04-15T14:06:32;8.50;99.90
12841;DHT22;6487;48.626;12.486;2023-04-15T14:09:00;8.60;99.90
12841;DHT22;6487;48.626;12.486;2023-04-15T14:11:30;8.40;99.90
12841;DHT22;6487;48.626;12.486;2023-04-15T14:13:58;8.40;99.90
12841;DHT22;6487;48.626;12.486;2023-04-15T14:16:28;8.40;99.90
12841;DHT22;6487;48.626;12.486;2023-04-15T14:18:56;8.40;99.90
12841;DHT22;6487;48.626;12.486;2023-04-15T14:21:25;8.40;99.90
12841;DHT22;6487;48.626;12.486;2023-04-15T14:23:54;8.50;99.90
12841;DHT22;6487;48.626;12.486;2023-04-15T14:26:23;8.60;99.90
12841;DHT22;6487;48.626;12.486;2023-04-15T14:28:55;8.50;99.90
12841;DHT22;6487;48.626;12.486;2023-04-15T14:31:29;8.50;99.90
12841;DHT22;6487;48.626;12.486;2023-04-15T14:33:58;8.50;99.90
12841;DHT22;6487;48.626;12.486;2023-04-15T14:36:26;8.50;99.90
12841;DHT22;6487;48.626;12.486;2023-04-15T14:38:58;8.50;99.90
12841;DHT22;6487;48.626;12.486;2023-04-15T14:41:26;8.40;99.90
12841;DHT22;6487;48.626;12.486;2023-04-15T14:43:54;8.40;99.90
12841;DHT22;6487;48.626;12.486;2023-04-15T14:46:23;8.40;99.90
12841;DHT22;6487;48.626;12.486;2023-04-15T14:48:53;8.50;99.90
12841;DHT22;6487;48.626;12.486;2023-04-15T14:51:22;8.40;99.90
12841;DHT22;6487;48.626;12.486;2023-04-15T14:53:50;8.40;99.90
12841;DHT22;6487;48.626;12.486;2023-04-15T14:56:19;8.40;99.90
12841;DHT22;6487;48.626;12.486;2023-04-15T14:58:48;8.40;99.90
12841;DHT22;6487;48.626;12.486;2023-04-15T15:01:19;8.30;99.90
12841;DHT22;6487;48.626;12.486;2023-04-15T15:03:48;8.30;99.90
12841;DHT22;6487;48.626;12.486;2023-04-15T15:06:19;8.40;99.90
12841;DHT22;6487;48.626;12.486;2023-04-15T15:08:48;8.40;99.90
12841;DHT22;6487;48.626;12.486;2023-04-15T15:11:20;8.20;99.90
12841;DHT22;6487;48.626;12.486;2023-04-15T15:13:48;8.20;99.90
12841;DHT22;6487;48.626;12.486;2023-04-15T15:16:16;8.30;99.90
12841;DHT22;6487;48.626;12.486;2023-04-15T15:18:45;8.20;99.90
12841;DHT22;6487;48.626;12.486;2023-04-15T15:21:14;8.30;99.90
12841;DHT22;6487;48.626;12.486;2023-04-15T15:23:43;8.30;99.90
12841;DHT22;6487;48.626;12.486;2023-04-15T15:26:14;8.30;99.90
12841;DHT22;6487;48.626;12.486;2023-04-15T15:28:42;8.40;99.90
12841;DHT22;6487;48.626;12.486;2023-04-15T15:31:11;8.40;99.90
12841;DHT22;6487;48.626;12.486;2023-04-15T15:33:39;8.40;99.90
12841;DHT22;6487;48.626;12.486;2023-04-15T15:36:09;8.50;99.90
12841;DHT22;6487;48.626;12.486;2023-04-15T15:38:39;8.50;99.90
12841;DHT22;6487;48.626;12.486;2023-04-15T15:41:09;8.40;99.90
12841;DHT22;6487;48.626;12.486;2023-04-15T15:43:38;8.30;99.90
12841;DHT22;6487;48.626;12.486;2023-04-15T15:46:06;8.40;99.90
12841;DHT22;6487;48.626;12.486;2023-04-15T15:48:35;8.40;99.90
12841;DHT22;6487;48.626;12.486;2023-04-15T15:51:04;8.40;99.90
12841;DHT22;6487;48.626;12.486;2023-04-15T15:53:33;8.40;99.90
12841;DHT22;6487;48.626;12.486;2023-04-15T15:56:01;8.50;99.90
12841;DHT22;6487;48.626;12.486;2023-04-15T15:58:32;8.50;99.90
12841;DHT22;6487;48.626;12.486;2023-04-15T16:01:03;8.60;99.90